< < Back
Terminal Aerodrome Forecast


Current Version              Previous Versions:   1  2  3  4  5  6  7  8  9  

Terminal Aerodrome Forecast

550
FTUS42 KFFC 201700
TAFCSG
TAF
KCSG 201732Z 2018/2118 06011G16KT P6SM SCT040
      TEMPO 2018/2019 OVC020
     FM210000 06003KT P6SM SCT250
     FM211500 28006KT P6SM SKC=

Latest METAR

356
SAUS70 KWBC 210800
MTRCSG
METAR KCSG 210751Z AUTO 00000KT 10SM CLR 18/16 A3000 RMK AO2 SLP154
T01830161 $


USA.gov is the U.S. government's official web portal to all federal, state and local government web resources and services.